createdAt,value
2023-04-04T00:19:23.004Z,99644.52
2023-04-04T00:24:26.883Z,99652.22
2023-04-04T00:29:30.152Z,99654.05
2023-04-04T00:34:33.736Z,99652.06
2023-04-04T00:39:37.025Z,99656.19
2023-04-04T00:44:40.875Z,99657.71
2023-04-04T00:49:46.666Z,99660.45
2023-04-04T00:54:50.636Z,99660.56
2023-04-04T00:59:53.878Z,99659.56
2023-04-04T01:04:57.189Z,99659.14
2023-04-04T01:10:02.719Z,99658.69
2023-04-04T01:15:06.847Z,99661.10
2023-04-04T01:20:17.956Z,99661.18
2023-04-04T01:25:34.900Z,99667.48
2023-04-04T01:30:45.895Z,99667.84
2023-04-04T01:36:23.130Z,99668.52
2023-04-04T01:41:29.282Z,99670.42
2023-04-04T01:46:37.230Z,99673.13
2023-04-04T01:51:41.657Z,99678.30
2023-04-04T01:56:46.403Z,99671.45
2023-04-04T02:01:50.188Z,99674.24
2023-04-04T02:06:53.526Z,99671.77
2023-04-04T02:11:57.617Z,99669.33
2023-04-04T02:17:00.833Z,99669.73
2023-04-04T02:22:04.630Z,99668.42
2023-04-04T02:27:08.222Z,99666.80
2023-04-04T02:32:11.910Z,99669.57
2023-04-04T02:37:15.223Z,99669.91
2023-04-04T02:42:19.190Z,99669.96
2023-04-04T02:47:23.069Z,99671.03
2023-04-04T02:52:26.912Z,99671.61
2023-04-04T02:57:31.986Z,99673.27
2023-04-04T03:02:35.734Z,99669.25
2023-04-04T03:07:39.258Z,99663.21
2023-04-04T03:12:42.672Z,99662.44
2023-04-04T03:17:46.945Z,99663.40
2023-04-04T03:22:50.574Z,99659.98
2023-04-04T03:27:53.915Z,99658.31
2023-04-04T03:32:59.526Z,99658.20
2023-04-04T03:38:03.693Z,99655.02
2023-04-04T03:43:07.875Z,99651.46
2023-04-04T03:48:11.650Z,99641.91
2023-04-04T03:53:16.527Z,99641.82
2023-04-04T03:58:19.935Z,99640.36
2023-04-04T04:03:23.487Z,99637.34
2023-04-04T04:08:27.990Z,99631.65
2023-04-04T04:13:31.369Z,99629.26
2023-04-04T04:18:35.463Z,99625.86
2023-04-04T04:23:39.619Z,99626.89
2023-04-04T04:28:43.099Z,99631.70
2023-04-04T04:33:50.762Z,99634.15
2023-04-04T04:38:55.656Z,99632.61
2023-04-04T04:44:01.168Z,99634.42
2023-04-04T04:49:05.445Z,99636.60
2023-04-04T04:54:09.005Z,99634.21
2023-04-04T04:59:16.013Z,99637.76
2023-04-04T05:04:20.503Z,99639.52
2023-04-04T05:09:39.602Z,99640.69
2023-04-04T05:14:43.025Z,99644.04
2023-04-04T05:19:46.712Z,99646.96
2023-04-04T05:24:53.348Z,99646.98
2023-04-04T05:29:59.201Z,99649.18
2023-04-04T05:35:07.454Z,99649.52
2023-04-04T05:40:11.738Z,99655.95
2023-04-04T05:45:15.474Z,99656.66
2023-04-04T05:50:18.868Z,99655.16
2023-04-04T05:55:25.496Z,99658.96
2023-04-04T06:00:31.291Z,99659.07
2023-04-04T06:05:39.404Z,99670.89
2023-04-04T06:10:42.823Z,99671.12
2023-04-04T06:15:46.493Z,99667.23
2023-04-04T06:20:49.743Z,99675.62
2023-04-04T06:25:54.303Z,99674.73
2023-04-04T06:30:58.868Z,99676.58
2023-04-04T06:36:11.335Z,99672.50
2023-04-04T06:41:14.749Z,99671.17
2023-04-04T06:46:18.474Z,99670.98
2023-04-04T06:51:22.215Z,99667.52
2023-04-04T06:56:27.197Z,99664.34
2023-04-04T07:01:34.839Z,99658.67
2023-04-04T07:06:38.207Z,99653.52
2023-04-04T07:11:42.017Z,99663.29
2023-04-04T07:16:45.389Z,99666.16
2023-04-04T07:21:48.628Z,99660.67
2023-04-04T07:26:52.240Z,99663.91
2023-04-04T07:31:55.498Z,99660.57
2023-04-04T07:36:58.739Z,99658.75
2023-04-04T07:42:02.449Z,99657.00
2023-04-04T07:47:09.836Z,99658.26
2023-04-04T07:52:58.710Z,99652.05
2023-04-04T07:58:02.750Z,99652.54
2023-04-04T08:03:07.181Z,99650.15
2023-04-04T08:08:28.116Z,99652.42
2023-04-04T08:13:31.739Z,99648.52
2023-04-04T08:18:35.195Z,99645.66
2023-04-04T08:23:42.142Z,99642.03
2023-04-04T08:28:45.655Z,99642.58
2023-04-04T08:33:48.855Z,99633.53
2023-04-04T08:38:52.091Z,99632.30
2023-04-04T08:43:58.075Z,99632.02
2023-04-04T08:49:04.435Z,99629.60
2023-04-04T08:54:09.534Z,99623.67
2023-04-04T08:59:16.114Z,99621.63
2023-04-04T09:04:21.961Z,99613.30
2023-04-04T09:09:25.365Z,99613.34
2023-04-04T09:14:30.653Z,99611.09
2023-04-04T09:19:34.118Z,99604.40
2023-04-04T09:24:42.725Z,99605.85
2023-04-04T09:36:02.702Z,99615.52
2023-04-04T09:41:12.375Z,99614.18
2023-04-04T09:46:19.596Z,99609.27
2023-04-04T09:51:23.005Z,99603.73
2023-04-04T09:56:28.183Z,99600.50
2023-04-04T10:01:33.799Z,99597.44
2023-04-04T10:06:38.029Z,99594.56
2023-04-04T10:11:41.439Z,99596.96
2023-04-04T10:16:45.925Z,99593.15
2023-04-04T10:21:49.457Z,99591.58
2023-04-04T10:26:54.387Z,99583.26
2023-04-04T10:32:05.568Z,99586.08
2023-04-04T10:37:16.928Z,99585.37
2023-04-04T10:42:20.273Z,99580.66
2023-04-04T10:47:26.622Z,99580.94
2023-04-04T10:52:31.446Z,99575.69
2023-04-04T10:57:43.207Z,99573.00
2023-04-04T11:03:00.626Z,99573.80
2023-04-04T11:08:09.478Z,99574.56
2023-04-04T11:13:29.510Z,99575.45
2023-04-04T11:18:34.337Z,99575.27
2023-04-04T11:23:49.601Z,99576.10
2023-04-04T11:28:56.482Z,99574.98
2023-04-04T11:34:08.223Z,99573.13
2023-04-04T11:39:27.190Z,99572.48
2023-04-04T11:44:33.183Z,99571.50
2023-04-04T11:49:37.403Z,99570.62
2023-04-04T11:54:43.967Z,99570.91
2023-04-04T11:59:49.737Z,99566.22
2023-04-04T12:04:53.865Z,99561.05
2023-04-04T12:09:57.934Z,99561.02
2023-04-04T12:15:10.812Z,99551.30
2023-04-04T12:20:23.797Z,99547.83
2023-04-04T12:25:28.687Z,99549.83
2023-04-04T12:30:33.434Z,99546.33
2023-04-04T12:35:38.101Z,99542.63
2023-04-04T12:40:42.312Z,99536.39
2023-04-04T12:45:45.561Z,99527.48
2023-04-04T12:50:52.229Z,99524.84
2023-04-04T12:56:00.177Z,99523.71
2023-04-04T13:01:04.391Z,99522.19
2023-04-04T13:06:17.232Z,99521.59
2023-04-04T13:11:21.111Z,99523.41
2023-04-04T13:16:37.483Z,99513.99
2023-04-04T13:21:41.088Z,99507.65
2023-04-04T13:26:44.438Z,99504.56
2023-04-04T13:31:47.899Z,99511.89
2023-04-04T13:36:51.564Z,99509.34
2023-04-04T13:41:54.795Z,99511.70
2023-04-04T13:46:58.408Z,99517.70
2023-04-04T13:52:01.832Z,99521.43
2023-04-04T13:57:05.076Z,99521.02
2023-04-04T14:02:09.497Z,99518.13
2023-04-04T14:07:15.730Z,99519.23
2023-04-04T14:17:57.927Z,99516.80
2023-04-04T14:23:01.718Z,99522.87
2023-04-04T14:28:09.220Z,99526.35
2023-04-04T14:33:13.881Z,99533.88
2023-04-04T14:42:52.722Z,99535.38
2023-04-04T14:47:57.065Z,99535.83
2023-04-04T14:53:01.096Z,99538.41
2023-04-04T14:58:04.629Z,99543.41
2023-04-04T15:03:08.966Z,99543.63
2023-04-04T15:08:12.984Z,99537.23
2023-04-04T15:13:17.058Z,99543.47
2023-04-04T15:18:20.876Z,99542.27
2023-04-04T15:23:24.916Z,99541.60
2023-04-04T15:28:28.845Z,99544.23
2023-04-04T15:33:33.231Z,99544.85
2023-04-04T15:43:01.622Z,99551.88
2023-04-04T15:48:12.003Z,99557.20
2023-04-04T15:58:43.955Z,99566.12
2023-04-04T16:03:52.169Z,99570.36
2023-04-04T16:09:17.053Z,99570.42
2023-04-04T16:14:24.474Z,99576.14
2023-04-04T16:19:39.478Z,99579.84
2023-04-04T16:24:50.956Z,99579.95
2023-04-04T17:45:33.335Z,99641.10
2023-04-04T17:50:44.157Z,99646.61
2023-04-04T17:55:47.995Z,99655.10
2023-04-04T18:00:53.049Z,99661.31
2023-04-04T18:05:57.269Z,99658.19
2023-04-04T18:11:00.850Z,99657.66
2023-04-04T18:16:06.337Z,99659.77
2023-04-04T18:21:10.027Z,99653.48
2023-04-04T18:26:13.285Z,99652.66
2023-04-04T18:31:16.710Z,99656.30
2023-04-04T18:36:20.159Z,99653.74
2023-04-04T18:41:23.682Z,99651.77
2023-04-04T19:46:09.691Z,99650.64
2023-04-04T19:51:15.738Z,99654.63
2023-04-04T19:56:23.988Z,99652.16
2023-04-04T20:01:29.599Z,99655.89
2023-04-04T20:06:33.064Z,99653.10
2023-04-04T20:11:37.104Z,99656.77
2023-04-04T20:16:40.380Z,99653.64
2023-04-04T20:21:44.284Z,99657.56
2023-04-04T20:26:58.292Z,99657.45
2023-04-04T20:32:04.994Z,99653.45
2023-04-04T20:37:11.728Z,99651.54
2023-04-04T20:42:19.810Z,99647.19
2023-04-04T20:47:37.747Z,99647.00
2023-04-04T20:52:43.518Z,99643.65
2023-04-04T20:57:47.469Z,99642.83
2023-04-04T21:02:50.745Z,99641.50
2023-04-04T21:07:54.506Z,99640.84
2023-04-04T21:13:01.009Z,99635.61
2023-04-04T21:18:09.343Z,99636.04
2023-04-04T21:23:28.027Z,99629.55
2023-04-04T21:28:33.646Z,99626.72
2023-04-04T21:33:38.264Z,99622.65
2023-04-04T21:38:42.137Z,99621.52
2023-04-04T21:44:43.613Z,99617.90
2023-04-04T21:49:50.558Z,99618.85
2023-04-04T21:54:54.321Z,99617.75
2023-04-04T21:59:57.803Z,99612.38
2023-04-04T22:05:18.161Z,99613.54
2023-04-04T22:10:59.875Z,99610.83
2023-04-04T22:16:21.570Z,99611.40
2023-04-04T23:26:09.064Z,99593.79
2023-04-04T23:37:57.977Z,99585.34
2023-04-04T23:48:53.224Z,99584.44
2023-04-04T23:54:01.161Z,99580.59
